Time;durP1;ratioP1;P1;durP2;ratioP2;P2;SDS_P1;SDS_P2;PMS_P1;PMS_P2;Temp;Humidity;BMP_temperature;BMP_pressure;BME280_temperature;BME280_humidity;BME280_pressure;Samples;Min_cycle;Max_cycle;Signal;HPM_P1;HPM_P2
2023/09/08 00:01:20;;;;;;;7.28;6.53;;;19.50;99.90;;;;;;5008892;28;20206;-57
2023/09/08 00:03:48;;;;;;;6.90;5.70;;;19.50;99.90;;;;;;5010895;28;20211;-57
2023/09/08 00:06:16;;;;;;;9.82;6.65;;;19.50;99.90;;;;;;5009302;28;20254;-56
2023/09/08 00:08:45;;;;;;;8.02;5.70;;;19.50;99.90;;;;;;5008640;28;20667;-56
2023/09/08 00:11:13;;;;;;;8.23;6.30;;;19.40;99.90;;;;;;5008288;28;20206;-56
2023/09/08 00:13:41;;;;;;;9.60;5.68;;;19.40;99.90;;;;;;5007516;28;20235;-56
2023/09/08 00:16:10;;;;;;;7.05;6.35;;;19.40;99.90;;;;;;5009262;28;20230;-57
2023/09/08 00:18:38;;;;;;;7.03;6.30;;;19.40;99.90;;;;;;5010603;28;20218;-56
2023/09/08 00:21:06;;;;;;;7.40;6.70;;;19.30;99.90;;;;;;5004707;28;20290;-57
2023/09/08 00:23:34;;;;;;;7.85;5.68;;;19.30;99.90;;;;;;5010047;28;20206;-56
2023/09/08 00:26:03;;;;;;;7.72;6.72;;;19.20;99.90;;;;;;5000715;28;20228;-57
2023/09/08 00:28:31;;;;;;;7.90;6.47;;;19.20;99.90;;;;;;5004861;28;20286;-57
2023/09/08 00:31:01;;;;;;;8.35;6.40;;;19.20;99.90;;;;;;5009130;28;20203;-56
2023/09/08 00:33:29;;;;;;;7.80;6.90;;;19.20;99.90;;;;;;4998989;28;20203;-56
2023/09/08 00:35:58;;;;;;;8.27;6.82;;;19.20;99.90;;;;;;5008032;28;20266;-57
2023/09/08 00:38:26;;;;;;;15.52;6.90;;;19.10;99.90;;;;;;4999569;28;20207;-56
2023/09/08 00:40:54;;;;;;;7.68;6.30;;;19.10;99.90;;;;;;5007519;28;20198;-55
2023/09/08 00:43:23;;;;;;;8.77;6.43;;;19.10;99.90;;;;;;4999256;28;20211;-57
2023/09/08 00:45:51;;;;;;;9.65;6.60;;;19.20;99.90;;;;;;5000818;28;20254;-57
2023/09/08 00:48:19;;;;;;;11.10;6.97;;;19.20;99.90;;;;;;4997628;28;20211;-56
2023/09/08 00:50:47;;;;;;;7.53;6.72;;;19.20;99.90;;;;;;5002882;28;20253;-56
2023/09/08 00:53:15;;;;;;;6.82;6.15;;;19.20;99.90;;;;;;5008581;28;20207;-56
2023/09/08 00:55:43;;;;;;;9.00;6.32;;;19.20;99.90;;;;;;5009392;28;20231;-55
2023/09/08 00:58:12;;;;;;;8.63;6.82;;;19.20;99.90;;;;;;5009428;28;20234;-56
2023/09/08 01:00:41;;;;;;;8.15;6.00;;;19.10;99.90;;;;;;5010517;28;20250;-56
2023/09/08 01:03:09;;;;;;;7.25;6.28;;;19.10;99.90;;;;;;5010651;28;20203;-57
2023/09/08 01:05:37;;;;;;;9.00;6.40;;;19.10;99.90;;;;;;5008407;28;20234;-56
2023/09/08 01:08:06;;;;;;;7.95;6.00;;;19.00;99.90;;;;;;5010783;28;20199;-57
2023/09/08 01:10:34;;;;;;;6.63;5.85;;;18.90;99.90;;;;;;5009121;28;20293;-57
2023/09/08 01:13:02;;;;;;;7.45;6.57;;;18.90;99.90;;;;;;5009981;28;20261;-56
2023/09/08 01:15:30;;;;;;;9.60;6.13;;;18.90;99.90;;;;;;5009768;28;20280;-56
2023/09/08 01:18:00;;;;;;;13.93;6.53;;;18.80;99.90;;;;;;5009716;28;20232;-55
2023/09/08 01:20:31;;;;;;;13.02;6.25;;;18.80;99.90;;;;;;5009482;28;20626;-55
2023/09/08 01:23:12;;;;;;;10.93;6.25;;;18.70;99.90;;;;;;5004454;28;20261;-56
2023/09/08 01:25:42;;;;;;;8.35;6.55;;;18.70;99.90;;;;;;5007988;28;20230;-56
2023/09/08 01:28:10;;;;;;;6.82;6.20;;;18.60;99.90;;;;;;5000806;28;20700;-56
2023/09/08 01:30:38;;;;;;;10.25;5.75;;;18.60;99.90;;;;;;5004463;28;20818;-57
2023/09/08 01:33:06;;;;;;;9.18;6.13;;;18.50;99.90;;;;;;4998896;28;20282;-57
2023/09/08 01:35:34;;;;;;;6.50;5.90;;;18.50;99.90;;;;;;5008164;28;20280;-57
2023/09/08 01:38:02;;;;;;;9.73;6.00;;;18.50;99.90;;;;;;5001652;28;20250;-57
2023/09/08 01:40:30;;;;;;;6.72;6.13;;;18.50;99.90;;;;;;5010558;28;20585;-57
2023/09/08 01:42:59;;;;;;;7.55;6.32;;;18.50;99.90;;;;;;4999973;28;20203;-56
2023/09/08 01:45:27;;;;;;;9.38;6.28;;;18.50;99.90;;;;;;5010900;28;20280;-57
2023/09/08 01:47:55;;;;;;;7.53;6.13;;;18.50;99.90;;;;;;5003021;28;20202;-57
2023/09/08 01:50:24;;;;;;;9.60;6.35;;;18.50;99.90;;;;;;5007387;28;20215;-57
2023/09/08 01:52:52;;;;;;;7.43;5.55;;;18.50;99.90;;;;;;5009001;28;20199;-56
2023/09/08 01:55:20;;;;;;;6.20;5.70;;;18.60;99.90;;;;;;5008842;28;20262;-56
2023/09/08 01:57:48;;;;;;;6.63;5.93;;;18.50;99.90;;;;;;5004862;28;20284;-57
2023/09/08 02:00:18;;;;;;;7.85;5.40;;;18.50;99.90;;;;;;5009294;28;20206;-57
2023/09/08 02:02:46;;;;;;;6.25;5.63;;;18.50;99.90;;;;;;5007934;28;20207;-55
2023/09/08 02:05:14;;;;;;;6.47;5.60;;;18.50;99.90;;;;;;5008240;28;20230;-55
2023/09/08 02:07:42;;;;;;;6.72;5.30;;;18.50;99.90;;;;;;5003481;28;20289;-56
2023/09/08 02:10:11;;;;;;;8.32;6.35;;;18.50;99.90;;;;;;5009400;28;20672;-56
2023/09/08 02:12:39;;;;;;;5.85;5.43;;;18.50;99.90;;;;;;5001336;28;20211;-56
2023/09/08 02:15:08;;;;;;;6.20;5.60;;;18.50;99.90;;;;;;5005381;28;20731;-56
2023/09/08 02:17:38;;;;;;;6.20;5.70;;;18.50;99.90;;;;;;5008011;28;20234;-56
2023/09/08 02:20:07;;;;;;;6.05;5.45;;;18.50;99.90;;;;;;5003414;28;20614;-56
2023/09/08 02:22:35;;;;;;;8.88;5.40;;;18.50;99.90;;;;;;5006366;28;20335;-56
2023/09/08 02:25:03;;;;;;;7.22;5.85;;;18.40;99.90;;;;;;5009219;28;20333;-56
2023/09/08 02:27:31;;;;;;;7.60;5.95;;;18.40;99.90;;;;;;5002532;28;20203;-57
2023/09/08 02:29:59;;;;;;;7.57;5.28;;;18.40;99.90;;;;;;4999676;28;20207;-56
2023/09/08 02:32:27;;;;;;;7.25;5.97;;;18.40;99.90;;;;;;5002607;28;20204;-56
2023/09/08 02:34:56;;;;;;;8.23;6.07;;;18.40;99.90;;;;;;5007368;28;20214;-56
2023/09/08 02:37:24;;;;;;;8.30;5.70;;;18.40;99.90;;;;;;5004613;28;20731;-56
2023/09/08 02:39:52;;;;;;;5.95;5.50;;;18.30;99.90;;;;;;5001366;28;20269;-55
2023/09/08 02:42:20;;;;;;;8.95;5.63;;;18.30;99.90;;;;;;4997406;28;20207;-56
2023/09/08 02:44:48;;;;;;;7.68;5.65;;;18.30;99.90;;;;;;5005749;28;20206;-57
2023/09/08 02:47:16;;;;;;;7.05;5.20;;;18.30;99.90;;;;;;4999193;28;20241;-55
2023/09/08 02:49:44;;;;;;;13.25;6.30;;;18.30;99.90;;;;;;5004060;28;20230;-57
2023/09/08 02:52:13;;;;;;;8.45;5.65;;;18.30;99.90;;;;;;5008003;28;20238;-55
2023/09/08 02:54:41;;;;;;;7.38;5.70;;;18.30;99.90;;;;;;5007701;28;20210;-56
2023/09/08 02:57:09;;;;;;;8.55;5.40;;;18.30;99.90;;;;;;5003918;28;20214;-57
2023/09/08 02:59:37;;;;;;;7.55;5.47;;;18.30;99.90;;;;;;5002147;28;20294;-56
2023/09/08 03:02:05;;;;;;;6.45;5.35;;;18.20;99.90;;;;;;5006455;28;20302;-57
2023/09/08 03:04:33;;;;;;;6.47;5.63;;;18.30;99.90;;;;;;5005031;28;20211;-56
2023/09/08 03:07:01;;;;;;;9.55;5.47;;;18.20;99.90;;;;;;5003874;28;20259;-55
2023/09/08 03:09:30;;;;;;;5.90;5.45;;;18.20;99.90;;;;;;5001416;28;20227;-56
2023/09/08 03:11:58;;;;;;;6.78;5.35;;;18.20;99.90;;;;;;5007163;28;20298;-56
2023/09/08 03:14:26;;;;;;;10.40;6.18;;;18.20;99.90;;;;;;5006139;28;20730;-57
2023/09/08 03:16:54;;;;;;;7.97;5.38;;;18.20;99.90;;;;;;5005597;28;20285;-56
2023/09/08 03:19:22;;;;;;;5.80;5.10;;;18.20;99.90;;;;;;5004582;28;20211;-57
2023/09/08 03:21:50;;;;;;;7.07;5.80;;;18.10;99.90;;;;;;5009369;28;20238;-56
2023/09/08 03:24:18;;;;;;;7.05;5.90;;;18.10;99.90;;;;;;5009759;28;20377;-56
2023/09/08 03:26:47;;;;;;;8.10;5.43;;;18.10;99.90;;;;;;5013498;28;20281;-57
2023/09/08 03:29:15;;;;;;;6.85;5.60;;;18.20;99.90;;;;;;5014027;28;20199;-56
2023/09/08 03:31:43;;;;;;;6.70;5.72;;;18.20;99.90;;;;;;5013548;28;20374;-56
2023/09/08 03:34:11;;;;;;;7.28;5.65;;;18.10;99.90;;;;;;5012936;28;20210;-56
2023/09/08 03:36:39;;;;;;;6.50;4.90;;;18.10;99.90;;;;;;5012653;28;20230;-56
2023/09/08 03:39:09;;;;;;;6.30;5.22;;;18.10;99.90;;;;;;5009260;28;20223;-55
2023/09/08 03:41:37;;;;;;;5.93;5.40;;;18.10;99.90;;;;;;5013466;28;20582;-56
2023/09/08 03:44:06;;;;;;;6.05;5.50;;;18.10;99.90;;;;;;5013954;28;20298;-56
2023/09/08 03:46:34;;;;;;;6.13;5.45;;;18.10;99.90;;;;;;5012703;28;20736;-56
2023/09/08 03:49:02;;;;;;;9.18;6.03;;;18.10;99.90;;;;;;5013344;28;20210;-57
2023/09/08 03:51:30;;;;;;;6.40;5.50;;;18.10;99.90;;;;;;5011418;28;20261;-56
2023/09/08 03:53:58;;;;;;;9.18;5.72;;;18.10;99.90;;;;;;5007600;28;20680;-55
2023/09/08 03:56:26;;;;;;;7.55;5.40;;;18.10;99.90;;;;;;5010070;28;20226;-55
2023/09/08 03:58:54;;;;;;;6.53;5.13;;;18.00;99.90;;;;;;5003392;28;20252;-56
2023/09/08 04:01:23;;;;;;;7.55;5.55;;;18.00;99.90;;;;;;5005073;28;20223;-56
2023/09/08 04:03:51;;;;;;;11.10;5.93;;;17.90;99.90;;;;;;5005350;28;20203;-57
2023/09/08 04:06:19;;;;;;;8.63;5.38;;;17.90;99.90;;;;;;5004333;28;20646;-57
2023/09/08 04:08:50;;;;;;;7.60;5.63;;;17.80;99.90;;;;;;5001833;28;20195;-56
2023/09/08 04:11:19;;;;;;;8.60;4.70;;;17.70;99.90;;;;;;5004012;28;20206;-56
2023/09/08 04:13:46;;;;;;;8.95;5.88;;;17.70;99.90;;;;;;5010286;28;20257;-56
2023/09/08 04:16:14;;;;;;;7.57;5.13;;;17.70;99.90;;;;;;5004879;28;20277;-56
2023/09/08 04:18:44;;;;;;;7.18;5.88;;;17.60;99.90;;;;;;5009321;28;20227;-56
2023/09/08 04:21:12;;;;;;;8.75;5.68;;;17.60;99.90;;;;;;5010427;28;20311;-56
2023/09/08 04:23:40;;;;;;;10.93;6.25;;;17.50;99.90;;;;;;5005426;28;20649;-56
2023/09/08 04:26:08;;;;;;;9.50;5.82;;;17.50;99.90;;;;;;5002719;28;21910;-56
2023/09/08 04:28:36;;;;;;;11.05;6.15;;;17.40;99.90;;;;;;5004405;28;20644;-57
2023/09/08 04:31:04;;;;;;;9.30;5.85;;;17.40;99.90;;;;;;5003545;28;20231;-55
2023/09/08 04:33:32;;;;;;;5.45;4.93;;;17.30;99.90;;;;;;5002318;28;20266;-56
2023/09/08 04:36:02;;;;;;;10.55;5.85;;;17.30;99.90;;;;;;5008162;28;20222;-56
2023/09/08 04:38:30;;;;;;;8.35;5.18;;;17.30;99.90;;;;;;5000997;28;20220;-56
2023/09/08 04:40:58;;;;;;;6.57;5.82;;;17.30;99.90;;;;;;5007299;28;20257;-55
2023/09/08 04:43:26;;;;;;;8.85;5.38;;;17.30;99.90;;;;;;5006518;28;20208;-57
2023/09/08 04:45:54;;;;;;;6.05;5.40;;;17.30;99.90;;;;;;5008157;28;20306;-57
2023/09/08 04:48:21;;;;;;;8.80;5.82;;;17.30;99.90;;;;;;5007067;28;20204;-57
2023/09/08 04:50:51;;;;;;;8.35;6.13;;;17.30;99.90;;;;;;5009884;28;20210;-57
2023/09/08 04:53:20;;;;;;;6.75;5.15;;;17.30;99.90;;;;;;5006100;28;20234;-57
2023/09/08 04:55:48;;;;;;;6.32;5.25;;;17.30;99.90;;;;;;5003947;28;20771;-57
2023/09/08 04:58:18;;;;;;;14.57;5.72;;;17.30;99.90;;;;;;5007298;28;20277;-57
2023/09/08 05:00:46;;;;;;;6.68;5.80;;;17.20;99.90;;;;;;5009505;28;20246;-57
2023/09/08 05:03:14;;;;;;;6.22;5.63;;;17.20;99.90;;;;;;5010711;28;20257;-56
2023/09/08 05:05:42;;;;;;;7.68;5.43;;;17.20;99.90;;;;;;5005442;28;20227;-57
2023/09/08 05:08:10;;;;;;;6.72;5.57;;;17.20;99.90;;;;;;5005729;28;20586;-56
2023/09/08 05:10:39;;;;;;;7.53;5.57;;;17.20;99.90;;;;;;5005610;28;20207;-55
2023/09/08 05:13:07;;;;;;;6.28;5.68;;;17.10;99.90;;;;;;5009898;28;20286;-56
2023/09/08 05:15:48;;;;;;;6.57;5.55;;;17.10;99.90;;;;;;5001461;28;20317;-54
2023/09/08 05:18:16;;;;;;;8.25;5.20;;;17.10;99.90;;;;;;5009364;28;20219;-55
2023/09/08 05:20:44;;;;;;;10.98;5.93;;;17.10;99.90;;;;;;5011469;28;20214;-54
2023/09/08 05:23:12;;;;;;;6.00;5.50;;;17.20;99.90;;;;;;5016265;28;20202;-54
2023/09/08 05:25:44;;;;;;;9.32;5.10;;;17.40;99.90;;;;;;5014185;28;20233;-55
2023/09/08 05:28:12;;;;;;;5.75;5.30;;;17.50;99.90;;;;;;5004449;28;20204;-55
2023/09/08 05:30:39;;;;;;;8.98;5.18;;;17.70;99.90;;;;;;5010595;28;20234;-54
2023/09/08 05:33:07;;;;;;;8.93;5.07;;;17.90;99.90;;;;;;5003884;28;20231;-54
2023/09/08 05:35:36;;;;;;;6.40;5.32;;;18.10;99.90;;;;;;5011189;28;20321;-54
2023/09/08 05:38:05;;;;;;;6.50;5.53;;;18.30;99.90;;;;;;5010189;28;20246;-54
2023/09/08 05:40:32;;;;;;;9.32;5.50;;;18.40;99.90;;;;;;5012320;28;20198;-56
2023/09/08 05:43:02;;;;;;;8.45;5.25;;;18.50;99.90;;;;;;5012065;28;20238;-54
2023/09/08 05:45:31;;;;;;;5.50;5.07;;;18.70;99.90;;;;;;5011798;28;20233;-54
2023/09/08 05:47:59;;;;;;;5.88;5.15;;;18.70;99.90;;;;;;5011616;28;20249;-55
2023/09/08 05:50:27;;;;;;;6.80;5.60;;;18.80;99.90;;;;;;5012002;28;20203;-55
2023/09/08 05:52:55;;;;;;;11.32;4.85;;;18.90;99.90;;;;;;5011218;28;20245;-55
2023/09/08 05:55:23;;;;;;;9.05;5.43;;;18.90;99.90;;;;;;5011406;28;20646;-55
2023/09/08 05:57:52;;;;;;;6.43;5.18;;;18.90;99.90;;;;;;5008506;28;20293;-55
2023/09/08 06:00:22;;;;;;;5.93;5.40;;;18.90;99.90;;;;;;5010246;28;20229;-54
2023/09/08 06:02:50;;;;;;;5.97;5.25;;;18.90;99.90;;;;;;5009144;28;20206;-55
2023/09/08 06:05:18;;;;;;;7.38;5.28;;;18.90;99.90;;;;;;5011262;28;20218;-54
2023/09/08 06:07:46;;;;;;;5.38;4.88;;;19.00;99.90;;;;;;5011710;28;20242;-54
2023/09/08 06:10:33;;;;;;;5.25;4.85;;;19.10;99.90;;;;;;5021664;28;20281;-54
2023/09/08 06:13:01;;;;;;;6.15;5.20;;;19.20;99.90;;;;;;5031399;28;20246;-54
2023/09/08 06:15:30;;;;;;;7.88;5.35;;;19.20;99.90;;;;;;5031210;28;20240;-55
2023/09/08 06:17:58;;;;;;;5.57;5.10;;;19.20;99.90;;;;;;5019979;28;20211;-53
2023/09/08 06:20:27;;;;;;;7.65;5.40;;;19.30;99.90;;;;;;5005948;28;20218;-53
2023/09/08 06:22:55;;;;;;;5.90;5.35;;;19.40;99.90;;;;;;5002108;28;20230;-53
2023/09/08 06:25:23;;;;;;;6.78;5.68;;;19.40;99.90;;;;;;5004465;28;20287;-53
2023/09/08 06:27:51;;;;;;;8.02;5.63;;;19.50;99.90;;;;;;5010858;28;20206;-54
2023/09/08 06:30:19;;;;;;;6.43;5.25;;;19.40;99.90;;;;;;5000289;28;20227;-55
2023/09/08 06:32:48;;;;;;;8.95;5.10;;;19.40;99.90;;;;;;5003608;28;20242;-55
2023/09/08 06:35:16;;;;;;;6.05;5.22;;;19.30;99.90;;;;;;5006440;28;20594;-59
2023/09/08 06:37:44;;;;;;;9.68;5.75;;;19.40;99.90;;;;;;5017826;28;20210;-58
2023/09/08 06:40:12;;;;;;;5.70;5.18;;;19.30;99.90;;;;;;5029659;28;20699;-59
2023/09/08 06:42:40;;;;;;;5.82;5.20;;;19.30;99.90;;;;;;5030195;28;20690;-58
2023/09/08 06:45:09;;;;;;;6.10;5.05;;;19.30;99.90;;;;;;5030464;28;20226;-58
2023/09/08 06:47:37;;;;;;;6.38;5.28;;;19.30;99.90;;;;;;5031154;28;20364;-58
2023/09/08 06:50:07;;;;;;;6.97;5.55;;;19.20;99.90;;;;;;5034630;28;20210;-58
2023/09/08 06:52:35;;;;;;;10.93;5.45;;;19.20;99.90;;;;;;5033817;28;20206;-56
2023/09/08 06:55:05;;;;;;;6.57;4.75;;;19.30;99.90;;;;;;5021891;28;20269;-56
2023/09/08 06:57:32;;;;;;;5.38;4.88;;;19.30;99.90;;;;;;5009078;28;20206;-58
2023/09/08 07:00:00;;;;;;;6.80;5.30;;;19.40;99.90;;;;;;5014925;28;20230;-58
2023/09/08 07:02:28;;;;;;;5.60;5.10;;;19.40;99.90;;;;;;5014200;28;20202;-58
2023/09/08 07:04:56;;;;;;;7.50;5.93;;;19.50;99.90;;;;;;5013491;28;20230;-59
2023/09/08 07:07:26;;;;;;;6.85;5.45;;;19.50;99.90;;;;;;5013622;28;20202;-58
2023/09/08 07:09:54;;;;;;;8.60;5.20;;;19.60;99.90;;;;;;5011315;28;20296;-58
2023/09/08 07:12:22;;;;;;;5.95;4.90;;;19.80;99.90;;;;;;5006634;28;20250;-58
2023/09/08 07:14:50;;;;;;;7.75;5.53;;;19.80;99.90;;;;;;5012946;28;20211;-59
2023/09/08 07:17:18;;;;;;;8.82;5.10;;;19.90;99.90;;;;;;5013215;28;20234;-58
2023/09/08 07:19:46;;;;;;;6.47;5.55;;;20.00;99.90;;;;;;5013822;28;20226;-58
2023/09/08 07:22:14;;;;;;;5.25;4.80;;;20.10;99.90;;;;;;5004662;28;20286;-58
2023/09/08 07:24:44;;;;;;;7.65;5.57;;;20.20;99.90;;;;;;5014007;28;20238;-58
2023/09/08 07:27:13;;;;;;;8.15;5.45;;;20.30;99.90;;;;;;5016193;28;20294;-58
2023/09/08 07:29:41;;;;;;;11.48;4.60;;;20.40;99.90;;;;;;5011067;28;20234;-58
2023/09/08 07:32:09;;;;;;;5.35;4.85;;;20.50;99.90;;;;;;5012263;28;20273;-59
2023/09/08 07:34:38;;;;;;;7.10;4.90;;;20.60;99.90;;;;;;5011757;28;20580;-58
2023/09/08 07:37:06;;;;;;;6.22;4.53;;;20.60;99.90;;;;;;5012993;28;20242;-58
2023/09/08 07:39:35;;;;;;;7.57;5.43;;;20.80;99.90;;;;;;5012369;28;20254;-58
2023/09/08 07:42:05;;;;;;;5.05;4.65;;;20.80;99.90;;;;;;5011881;28;20214;-59
2023/09/08 07:44:33;;;;;;;6.63;4.70;;;20.90;99.90;;;;;;5012110;28;20265;-58
2023/09/08 07:47:01;;;;;;;7.50;4.93;;;21.10;99.90;;;;;;5010648;28;20282;-59
2023/09/08 07:49:29;;;;;;;9.27;5.10;;;21.10;99.90;;;;;;5010899;28;20246;-58
2023/09/08 07:51:57;;;;;;;6.25;4.75;;;21.20;99.90;;;;;;5013233;28;20665;-58
2023/09/08 07:54:24;;;;;;;5.57;4.78;;;21.30;99.90;;;;;;5005423;28;20258;-58
2023/09/08 07:56:52;;;;;;;4.80;4.40;;;21.40;99.90;;;;;;5011277;28;20262;-58
2023/09/08 07:59:22;;;;;;;5.40;4.70;;;21.50;99.90;;;;;;5011751;28;20203;-58
2023/09/08 08:01:50;;;;;;;5.20;4.70;;;21.60;99.90;;;;;;5011665;28;20202;-58
2023/09/08 08:04:18;;;;;;;7.38;4.80;;;21.70;99.90;;;;;;5010440;28;20238;-58
2023/09/08 08:06:47;;;;;;;6.03;4.93;;;21.90;99.90;;;;;;5011535;28;20294;-59
2023/09/08 08:09:15;;;;;;;10.02;4.80;;;22.00;99.90;;;;;;5012621;28;20245;-58
2023/09/08 08:11:43;;;;;;;6.10;5.10;;;22.10;99.90;;;;;;5009091;28;20238;-59
2023/09/08 08:14:11;;;;;;;6.38;4.80;;;22.20;99.90;;;;;;5013472;28;20272;-58
2023/09/08 08:16:40;;;;;;;4.38;4.03;;;22.20;99.90;;;;;;5020024;28;20230;-57
2023/09/08 08:19:08;;;;;;;5.88;4.35;;;22.30;99.90;;;;;;5033328;28;20289;-58
2023/09/08 08:21:37;;;;;;;5.25;4.05;;;22.40;99.90;;;;;;5021916;28;20227;-59
2023/09/08 08:24:05;;;;;;;4.20;3.90;;;22.60;99.90;;;;;;5029708;28;20210;-58
2023/09/08 08:26:34;;;;;;;5.25;4.75;;;22.70;99.90;;;;;;5032780;28;20276;-59
2023/09/08 08:29:03;;;;;;;4.85;4.53;;;22.80;99.90;;;;;;5033112;28;20842;-59
2023/09/08 08:31:33;;;;;;;6.07;4.40;;;22.90;99.90;;;;;;5023058;28;20199;-59
2023/09/08 08:34:02;;;;;;;9.65;4.75;;;23.00;99.90;;;;;;5012615;28;20204;-59
2023/09/08 08:36:30;;;;;;;8.70;4.63;;;23.10;99.90;;;;;;5011561;28;20254;-59
2023/09/08 08:38:58;;;;;;;4.85;4.50;;;23.20;99.90;;;;;;5025501;28;20317;-59
2023/09/08 08:41:26;;;;;;;6.55;4.60;;;23.40;99.90;;;;;;5032976;28;20255;-59
2023/09/08 08:43:54;;;;;;;6.00;4.30;;;23.50;99.90;;;;;;5031496;28;20213;-58
2023/09/08 08:46:23;;;;;;;4.70;4.40;;;23.60;99.90;;;;;;5032626;28;20218;-59
2023/09/08 08:48:54;;;;;;;7.57;4.72;;;23.70;99.90;;;;;;5032246;28;20261;-59
2023/09/08 08:51:24;;;;;;;4.97;4.13;;;23.80;99.90;;;;;;5033018;28;20284;-58
2023/09/08 08:53:52;;;;;;;4.72;4.43;;;23.90;99.90;;;;;;5032669;28;20214;-59
2023/09/08 08:56:20;;;;;;;4.43;4.03;;;24.00;99.90;;;;;;5032440;28;20308;-59
2023/09/08 08:58:47;;;;;;;5.70;4.82;;;24.10;99.90;;;;;;5032559;28;20210;-59
2023/09/08 09:01:16;;;;;;;4.85;4.13;;;24.20;99.90;;;;;;5032445;28;20280;-59
2023/09/08 09:03:44;;;;;;;5.78;4.53;;;24.30;99.90;;;;;;5032318;28;20732;-59
2023/09/08 09:06:12;;;;;;;4.85;3.90;;;24.40;99.90;;;;;;5032061;28;20616;-58
2023/09/08 09:08:42;;;;;;;4.80;4.38;;;24.60;99.90;;;;;;5032454;28;20210;-59
2023/09/08 09:11:10;;;;;;;5.95;4.68;;;24.70;99.90;;;;;;5031614;28;20252;-59
2023/09/08 09:13:39;;;;;;;4.38;4.07;;;24.90;99.90;;;;;;5032310;28;20229;-59
2023/09/08 09:16:10;;;;;;;4.90;4.40;;;25.10;99.90;;;;;;5031864;28;20268;-59
2023/09/08 09:18:54;;;;;;;8.40;4.32;;;25.30;99.90;;;;;;5032310;28;20241;-59
2023/09/08 09:21:22;;;;;;;6.95;4.38;;;25.50;99.90;;;;;;5032416;28;20222;-59
2023/09/08 09:23:51;;;;;;;6.82;4.55;;;25.60;99.90;;;;;;5031989;28;20210;-59
2023/09/08 09:26:24;;;;;;;9.25;4.68;;;25.80;99.90;;;;;;5031864;28;20222;-59
2023/09/08 09:28:53;;;;;;;4.88;4.47;;;25.70;99.90;;;;;;5031861;28;20810;-59
2023/09/08 09:31:25;;;;;;;5.43;4.93;;;25.90;99.90;;;;;;5032251;28;20205;-59
2023/09/08 09:34:04;;;;;;;9.15;4.38;;;26.10;99.90;;;;;;5031967;28;20206;-59
2023/09/08 09:36:32;;;;;;;5.63;4.40;;;26.40;99.90;;;;;;5031705;28;20769;-59
2023/09/08 09:39:03;;;;;;;4.75;4.10;;;26.60;99.90;;;;;;5031600;28;20230;-59
2023/09/08 09:41:31;;;;;;;6.50;4.75;;;26.80;99.90;;;;;;5031848;28;20672;-59
2023/09/08 09:43:59;;;;;;;7.22;4.60;;;27.00;99.90;;;;;;5031526;28;20210;-59
2023/09/08 09:46:28;;;;;;;4.35;4.15;;;27.30;99.90;;;;;;5031596;28;20257;-59
2023/09/08 09:48:57;;;;;;;5.00;4.57;;;27.50;99.90;;;;;;5031513;28;20256;-59
2023/09/08 09:51:25;;;;;;;4.35;4.05;;;27.70;99.90;;;;;;5031722;28;20660;-59
2023/09/08 09:53:54;;;;;;;5.28;4.40;;;27.90;99.90;;;;;;5031584;28;20206;-57
2023/09/08 09:56:24;;;;;;;5.88;4.47;;;28.00;99.90;;;;;;5031356;28;20727;-60
2023/09/08 09:58:53;;;;;;;4.78;4.38;;;28.20;99.90;;;;;;5031271;28;20567;-59
2023/09/08 10:01:21;;;;;;;4.68;4.30;;;28.40;99.90;;;;;;5031620;28;20262;-59
2023/09/08 10:03:49;;;;;;;8.20;4.57;;;28.70;99.90;;;;;;5031436;28;20251;-59
2023/09/08 10:06:18;;;;;;;7.45;4.72;;;28.90;99.90;;;;;;5029375;28;20758;-59
2023/09/08 10:08:46;;;;;;;4.28;3.88;;;29.10;99.90;;;;;;5030021;28;20285;-59
2023/09/08 10:11:16;;;;;;;12.75;4.50;;;29.40;99.90;;;;;;5029964;28;20233;-60
2023/09/08 10:13:47;;;;;;;7.38;4.72;;;29.70;99.90;;;;;;5030264;28;20292;-59
2023/09/08 10:16:17;;;;;;;4.82;4.43;;;29.90;99.90;;;;;;5031046;28;20229;-60
2023/09/08 10:18:45;;;;;;;5.25;4.15;;;30.20;99.90;;;;;;5031307;28;20253;-59
2023/09/08 10:21:14;;;;;;;7.28;4.20;;;30.30;99.90;;;;;;5031470;28;20317;-60
2023/09/08 10:23:43;;;;;;;4.25;3.95;;;30.60;99.90;;;;;;5033909;28;20285;-60
2023/09/08 10:26:12;;;;;;;7.20;4.18;;;30.90;99.90;;;;;;5035139;28;20264;-60
2023/09/08 10:28:40;;;;;;;4.38;4.07;;;31.10;99.90;;;;;;5035334;28;20198;-60
2023/09/08 10:31:09;;;;;;;6.47;4.55;;;31.30;99.90;;;;;;5035324;28;20230;-60
2023/09/08 10:33:40;;;;;;;4.90;4.30;;;31.30;99.90;;;;;;5035402;28;20242;-57
2023/09/08 10:36:08;;;;;;;7.65;5.03;;;31.50;99.90;;;;;;5034976;28;20229;-57
2023/09/08 10:38:36;;;;;;;4.90;4.55;;;31.70;99.90;;;;;;5035279;28;20209;-57
2023/09/08 10:41:32;;;;;;;4.45;4.07;;;31.90;99.90;;;;;;5035031;28;20226;-57
2023/09/08 10:44:04;;;;;;;5.78;4.28;;;32.20;99.90;;;;;;5035247;28;20249;-57
2023/09/08 10:46:34;;;;;;;4.75;4.30;;;32.40;99.90;;;;;;5035014;28;20225;-57
2023/09/08 10:49:04;;;;;;;6.55;4.05;;;32.30;99.90;;;;;;5034833;28;20606;-57
2023/09/08 10:51:32;;;;;;;4.63;4.25;;;32.40;99.90;;;;;;5035182;28;20255;-57
2023/09/08 10:54:00;;;;;;;5.35;4.50;;;32.60;99.90;;;;;;5034732;28;20250;-57
2023/09/08 10:56:29;;;;;;;4.95;4.22;;;32.20;99.90;;;;;;5034853;28;20268;-57
2023/09/08 10:59:01;;;;;;;5.43;4.10;;;32.40;99.90;;;;;;5034984;28;20217;-58
2023/09/08 11:01:30;;;;;;;5.03;4.18;;;32.60;99.90;;;;;;5034838;28;20691;-58
2023/09/08 11:04:00;;;;;;;4.95;4.55;;;32.40;99.90;;;;;;5034691;28;20296;-57
2023/09/08 11:06:30;;;;;;;4.68;4.22;;;32.40;99.90;;;;;;5007002;28;20262;-57
2023/09/08 11:08:58;;;;;;;5.55;4.20;;;32.60;99.90;;;;;;5015196;28;20210;-57
2023/09/08 11:11:26;;;;;;;7.32;4.47;;;33.00;99.90;;;;;;5005960;28;20194;-57
2023/09/08 11:13:54;;;;;;;4.57;4.15;;;33.30;99.90;;;;;;5014824;28;20668;-57
2023/09/08 11:16:29;;;;;;;4.35;3.97;;;33.80;99.90;;;;;;5014636;28;20305;-57
2023/09/08 11:18:58;;;;;;;4.65;4.10;;;34.10;99.90;;;;;;5014615;28;20210;-57
2023/09/08 11:21:26;;;;;;;4.82;4.40;;;34.40;99.70;;;;;;5014963;28;20641;-58
2023/09/08 11:23:55;;;;;;;4.30;3.90;;;34.60;99.80;;;;;;5014714;28;20257;-57
2023/09/08 11:26:23;;;;;;;4.07;3.88;;;34.70;98.40;;;;;;5014368;28;20580;-57
2023/09/08 11:28:51;;;;;;;5.15;3.97;;;34.80;97.20;;;;;;5014826;28;20301;-57
2023/09/08 11:31:19;;;;;;;6.38;3.70;;;34.70;96.20;;;;;;5014501;28;20647;-57
2023/09/08 11:33:48;;;;;;;4.60;3.92;;;34.90;96.20;;;;;;5013934;28;20211;-57
2023/09/08 11:36:19;;;;;;;5.22;3.67;;;35.10;96.30;;;;;;5035225;22;20222;-61
2023/09/08 11:38:47;;;;;;;9.52;3.97;;;35.20;95.80;;;;;;5027853;28;20297;-61
2023/09/08 11:41:15;;;;;;;4.57;4.15;;;35.20;95.80;;;;;;5024289;28;20230;-61
2023/09/08 11:43:43;;;;;;;4.35;3.95;;;35.20;94.80;;;;;;5025977;28;20210;-61
2023/09/08 11:46:11;;;;;;;4.38;4.07;;;35.40;95.90;;;;;;5024419;28;20253;-61
2023/09/08 11:48:39;;;;;;;6.60;4.07;;;35.40;94.80;;;;;;5019435;28;20202;-61
2023/09/08 11:51:08;;;;;;;4.35;3.97;;;35.60;94.60;;;;;;5025143;28;20206;-61
2023/09/08 11:53:37;;;;;;;6.18;3.83;;;35.90;93.10;;;;;;5022463;28;20246;-60
2023/09/08 11:56:05;;;;;;;4.30;4.10;;;36.00;93.70;;;;;;5013666;28;20286;-61
2023/09/08 11:58:33;;;;;;;5.43;3.83;;;36.20;93.70;;;;;;4994365;28;20298;-61
2023/09/08 12:01:03;;;;;;;4.10;3.75;;;36.50;93.00;;;;;;4994699;28;20207;-61
2023/09/08 12:03:31;;;;;;;6.00;4.20;;;36.50;92.10;;;;;;4994341;28;20223;-62
2023/09/08 12:06:00;;;;;;;4.47;4.07;;;36.60;92.10;;;;;;4994137;28;20282;-61
2023/09/08 12:08:27;;;;;;;4.75;4.00;;;36.70;91.20;;;;;;4994041;28;20685;-61
2023/09/08 12:10:57;;;;;;;5.75;3.70;;;36.60;91.00;;;;;;4994325;28;20290;-62
2023/09/08 12:13:25;;;;;;;8.30;4.40;;;36.60;92.10;;;;;;4994224;28;20258;-61
2023/09/08 12:15:52;;;;;;;4.68;3.75;;;36.60;91.40;;;;;;4993994;28;20255;-62
2023/09/08 12:18:20;;;;;;;4.50;4.07;;;36.70;88.20;;;;;;4993977;28;20207;-61
2023/09/08 12:20:48;;;;;;;4.18;3.85;;;36.90;89.80;;;;;;4993780;28;20647;-61
2023/09/08 12:23:18;;;;;;;4.30;4.00;;;36.90;88.40;;;;;;4991714;28;20326;-61
2023/09/08 12:25:46;;;;;;;4.78;4.43;;;37.00;88.00;;;;;;4993566;28;20228;-61
2023/09/08 12:28:18;;;;;;;4.70;4.22;;;36.40;87.90;;;;;;4993874;28;20294;-61
2023/09/08 12:30:45;;;;;;;4.65;4.35;;;36.20;88.20;;;;;;4993922;28;20716;-61
2023/09/08 12:33:14;;;;;;;4.70;4.30;;;36.40;90.30;;;;;;4993463;28;20763;-61
2023/09/08 12:35:44;;;;;;;6.00;4.20;;;36.70;89.10;;;;;;4993387;28;20239;-61
2023/09/08 12:38:11;;;;;;;4.30;3.92;;;37.00;88.30;;;;;;4993408;28;20215;-61
2023/09/08 12:40:39;;;;;;;5.72;4.10;;;37.00;83.30;;;;;;4993931;28;20310;-61
2023/09/08 12:43:07;;;;;;;4.38;3.97;;;37.20;87.10;;;;;;4993291;28;20675;-61
2023/09/08 12:45:56;;;;;;;4.55;3.65;;;37.40;86.50;;;;;;4993042;28;20294;-62
2023/09/08 12:48:24;;;;;;;3.65;3.40;;;37.40;88.00;;;;;;4993276;28;20243;-62
2023/09/08 12:50:52;;;;;;;4.55;4.18;;;37.40;87.90;;;;;;4993477;28;20262;-61
2023/09/08 12:53:22;;;;;;;4.70;4.00;;;37.50;84.10;;;;;;4993339;28;20199;-61